Airfield :
LOGIN :

Register | Disclaimer

   EN    FR    IT 

 










Legend :    VFR   Marginal VFR   IFR   Intensive IFR   Very Intensive IFR
Visi :
Ceiling :
>= 8 km
>= 3000ft
5 to 8 km
1000 to 3000 ft
1500m to 5 km
500 to 1000 ft
800 to 1500m
200 to 500 ft
< 800m
< 200 ft
Symbols :   Thunderstorms  Fog  Heavy snow  Heavy precipitations  Wind > 20 kt
SIGMETs :     Misc.  Thunderstorms  Icing  Turbulence  Mountain Waves  Volcanic Ashes







- Airport Elevation : 29 ft
- IATA code : SVG


ENZV - Sola

CURRENT METAR :
  • 161250Z 18012KT 150V210 CAVOK 18/12 Q1014 NOSIG

EXPIRED METARs :
  • 161220Z 20012KT CAVOK 18/11 Q1014 NOSIG
  • 161150Z 19012KT 150V220 CAVOK 19/10 Q1014 NOSIG
  • 161120Z 19010KT CAVOK 18/10 Q1014 NOSIG
  • 161050Z 20011KT CAVOK 18/11 Q1014 NOSIG
  • 161020Z 19010KT 9999 FEW019 18/12 Q1014 NOSIG

TAF TAF ENZV
Valid from the 16 at 12:00 until the 17 at 12:00 UTC


1612/1712 19010KT 9999 FEW012 SCT050
PROB40
TEMPO 1612/1620 BKN012
TEMPO 1708/1712 18015G25KT SHRA BKN012 SCT020CB
No reported NOTAMs for that airfield.



MET'MAP, your aeronautical weather chart ! - Copyright ORBIFLY December 2007 - Disclaimer

ORBIFLY MET'MAP TEAM :

Programming & Development : Alexandra Zaïnal
Concept & Development : Baudouin d'Aumeries
Co-Development & Prog : Marc-Olivier Méhu
Technical & hardware support : Manuel Goepfert

Contact : metmap@orbifly.com




SOURCES & CREDITS :

   NOAA